Time,TemperatureF,DewpointF,PressureIn,WindDirection,WindDirectionDegrees,WindSpeedMPH,WindSpeedGustMPH,Humidity,HourlyPrecipIn,Conditions,Clouds,dailyrainin,SoftwareType,DateUTC
2013-03-02 00:14:00,54.3,49.9,29.99,South,180,1.7,-999.0,85,-99.99,,,0.00,Acu-Link.com,2013-03-02 08:14:00,
2013-03-02 00:29:00,54.3,49.9,29.99,SSW,202,4.2,-999.0,85,-99.99,,,0.00,Acu-Link.com,2013-03-02 08:29:00,
2013-03-02 00:45:00,54.1,49.7,29.99,SW,225,2.2,-999.0,85,-99.99,,,0.00,Acu-Link.com,2013-03-02 08:45:00,
2013-03-02 01:00:00,54.3,49.2,29.99,SSW,202,5.8,-999.0,83,-99.99,,,0.00,Acu-Link.com,2013-03-02 09:00:00,
2013-03-02 01:19:00,54.3,49.2,30.00,SSE,157,2.2,-999.0,83,-99.99,,,0.00,Acu-Link.com,2013-03-02 09:19:00,
2013-03-02 01:34:00,54.1,49.1,29.99,ESE,112,2.7,-999.0,83,-99.99,,,0.00,Acu-Link.com,2013-03-02 09:34:00,
2013-03-02 01:49:00,54.1,49.1,29.99,East,90,2.2,-999.0,83,-99.99,,,0.00,Acu-Link.com,2013-03-02 09:49:00,
2013-03-02 02:04:00,54.1,48.7,29.98,SSE,157,2.2,-999.0,82,-99.99,,,0.00,Acu-Link.com,2013-03-02 10:04:00,
2013-03-02 02:19:00,54.1,48.7,29.98,South,180,2.7,-999.0,82,-99.99,,,0.00,Acu-Link.com,2013-03-02 10:19:00,
2013-03-02 02:34:00,54.0,48.3,29.97,SSE,157,3.7,-999.0,81,-99.99,,,0.00,Acu-Link.com,2013-03-02 10:34:00,
2013-03-02 02:49:00,54.0,48.0,29.97,South,180,3.2,-999.0,80,-99.99,,,0.00,Acu-Link.com,2013-03-02 10:49:00,
2013-03-02 03:04:00,53.6,47.9,29.96,SW,225,1.7,-999.0,81,-99.99,,,0.00,Acu-Link.com,2013-03-02 11:04:00,
2013-03-02 03:19:00,53.2,47.5,29.94,SSW,202,3.7,-999.0,81,-99.99,,,0.00,Acu-Link.com,2013-03-02 11:19:00,
2013-03-02 03:34:00,53.4,47.7,29.94,ESE,112,2.2,-999.0,81,-99.99,,,0.00,Acu-Link.com,2013-03-02 11:34:00,
2013-03-02 03:50:00,53.4,47.7,29.93,ESE,112,4.2,-999.0,81,-99.99,,,0.00,Acu-Link.com,2013-03-02 11:50:00,
2013-03-02 04:05:00,53.4,47.7,29.93,SSW,202,2.2,-999.0,81,-99.99,,,0.00,Acu-Link.com,2013-03-02 12:05:00,
2013-03-02 04:20:00,53.2,47.5,29.93,South,180,1.7,-999.0,81,-99.99,,,0.00,Acu-Link.com,2013-03-02 12:20:00,
2013-03-02 04:35:00,53.4,47.4,29.92,ESE,112,3.7,-999.0,80,-99.99,,,0.00,Acu-Link.com,2013-03-02 12:35:00,
2013-03-02 04:50:00,53.4,47.4,29.92,ESE,112,5.3,-999.0,80,-99.99,,,0.00,Acu-Link.com,2013-03-02 12:50:00,
2013-03-02 05:05:00,53.2,47.2,29.91,East,90,2.7,-999.0,80,-99.99,,,0.00,Acu-Link.com,2013-03-02 13:05:00,
2013-03-02 05:20:00,53.2,47.5,29.92,SE,135,3.2,-999.0,81,-99.99,,,0.00,Acu-Link.com,2013-03-02 13:20:00,
2013-03-02 05:35:00,53.1,47.4,29.92,SSW,202,2.2,-999.0,81,-99.99,,,0.00,Acu-Link.com,2013-03-02 13:35:00,
2013-03-02 05:50:00,52.9,47.2,29.91,WSW,247,1.1,-999.0,81,-99.99,,,0.00,Acu-Link.com,2013-03-02 13:50:00,
2013-03-02 06:06:00,52.7,47.0,29.91,SSE,157,2.2,-999.0,81,-99.99,,,0.00,Acu-Link.com,2013-03-02 14:06:00,
2013-03-02 06:21:00,52.5,46.8,29.91,West,270,0.0,-999.0,81,-99.99,,,0.00,Acu-Link.com,2013-03-02 14:21:00,
2013-03-02 06:36:00,52.5,46.8,29.91,ESE,112,2.7,-999.0,81,-99.99,,,0.00,Acu-Link.com,2013-03-02 14:36:00,
2013-03-02 06:51:00,52.3,46.6,29.90,ESE,112,4.7,-999.0,81,-99.99,,,0.00,Acu-Link.com,2013-03-02 14:51:00,
2013-03-02 07:06:00,52.2,46.5,29.90,NE,45,2.7,-999.0,81,-99.99,,,0.00,Acu-Link.com,2013-03-02 15:06:00,
2013-03-02 07:21:00,52.2,46.5,29.89,East,90,5.8,-999.0,81,-99.99,,,0.00,Acu-Link.com,2013-03-02 15:21:00,
2013-03-02 07:37:00,52.3,46.6,29.89,SE,135,5.3,-999.0,81,-99.99,,,0.00,Acu-Link.com,2013-03-02 15:37:00,
2013-03-02 07:52:00,52.7,46.7,29.88,ESE,112,3.7,-999.0,80,-99.99,,,0.00,Acu-Link.com,2013-03-02 15:52:00,
2013-03-02 08:07:00,52.7,46.7,29.87,SSE,157,6.3,-999.0,80,-99.99,,,0.00,Acu-Link.com,2013-03-02 16:07:00,
2013-03-02 08:22:00,53.2,46.9,29.87,SSE,157,7.8,-999.0,79,-99.99,,,0.00,Acu-Link.com,2013-03-02 16:22:00,
2013-03-02 08:37:00,53.6,46.9,29.87,South,180,4.2,-999.0,78,-99.99,,,0.00,Acu-Link.com,2013-03-02 16:37:00,
2013-03-02 08:52:00,54.0,47.0,29.88,SW,225,2.2,-999.0,77,-99.99,,,0.00,Acu-Link.com,2013-03-02 16:52:00,
2013-03-02 09:08:00,54.5,47.4,29.87,SW,225,4.2,-999.0,77,-99.99,,,0.00,Acu-Link.com,2013-03-02 17:08:00,
2013-03-02 09:23:00,54.5,47.4,29.87,SW,225,1.1,-999.0,77,-99.99,,,0.00,Acu-Link.com,2013-03-02 17:23:00,
2013-03-02 09:38:00,55.2,47.8,29.87,South,180,1.1,-999.0,76,-99.99,,,0.00,Acu-Link.com,2013-03-02 17:38:00,
2013-03-02 09:53:00,55.0,47.6,29.86,SSW,202,3.2,-999.0,76,-99.99,,,0.00,Acu-Link.com,2013-03-02 17:53:00,
2013-03-02 10:08:00,55.8,48.0,29.86,NE,45,2.2,-999.0,75,-99.99,,,0.00,Acu-Link.com,2013-03-02 18:08:00,
2013-03-02 10:23:00,56.3,48.1,29.86,SSW,202,1.7,-999.0,74,-99.99,,,0.00,Acu-Link.com,2013-03-02 18:23:00,
2013-03-02 10:38:00,56.8,48.2,29.85,South,180,3.2,-999.0,73,-99.99,,,0.00,Acu-Link.com,2013-03-02 18:38:00,
2013-03-02 10:53:00,56.7,48.1,29.85,SSE,157,2.2,-999.0,73,-99.99,,,0.00,Acu-Link.com,2013-03-02 18:53:00,
2013-03-02 11:08:00,56.8,48.2,29.85,SE,135,6.8,-999.0,73,-99.99,,,0.00,Acu-Link.com,2013-03-02 19:08:00,
2013-03-02 11:23:00,57.4,48.1,29.85,South,180,4.7,-999.0,71,-99.99,,,0.00,Acu-Link.com,2013-03-02 19:23:00,
2013-03-02 11:39:00,57.7,48.4,29.83,South,180,4.7,-999.0,71,-99.99,,,0.00,Acu-Link.com,2013-03-02 19:39:00,
2013-03-02 11:54:00,57.2,47.9,29.83,SSW,202,2.2,-999.0,71,-99.99,,,0.00,Acu-Link.com,2013-03-02 19:54:00,
2013-03-02 12:09:00,57.0,48.1,29.82,South,180,8.3,-999.0,72,-99.99,,,0.00,Acu-Link.com,2013-03-02 20:09:00,
2013-03-02 12:24:00,57.0,47.7,29.82,ESE,112,2.7,-999.0,71,-99.99,,,0.00,Acu-Link.com,2013-03-02 20:24:00,
2013-03-02 12:39:00,57.9,48.2,29.82,ESE,112,2.2,-999.0,70,-99.99,,,0.00,Acu-Link.com,2013-03-02 20:39:00,
2013-03-02 12:54:00,58.3,47.8,29.81,SE,135,6.3,-999.0,68,-99.99,,,0.00,Acu-Link.com,2013-03-02 20:54:00,
2013-03-02 13:09:00,57.2,47.5,29.81,ESE,112,6.8,-999.0,70,-99.99,,,0.00,Acu-Link.com,2013-03-02 21:09:00,
2013-03-02 13:24:00,56.7,47.0,29.80,ENE,67,5.8,-999.0,70,-99.99,,,0.00,Acu-Link.com,2013-03-02 21:24:00,
2013-03-02 13:39:00,55.4,48.0,29.79,SSE,157,2.2,-999.0,76,-99.99,,,0.00,Acu-Link.com,2013-03-02 21:39:00,
2013-03-02 13:55:00,55.4,47.6,29.80,NE,45,3.2,-999.0,75,-99.99,,,0.00,Acu-Link.com,2013-03-02 21:55:00,
2013-03-02 14:10:00,55.0,48.6,29.79,SSW,202,4.7,-999.0,79,-99.99,,,0.00,Acu-Link.com,2013-03-02 22:10:00,
2013-03-02 14:25:00,55.0,48.3,29.79,SSE,157,6.8,-999.0,78,-99.99,,,0.00,Acu-Link.com,2013-03-02 22:25:00,
2013-03-02 14:40:00,52.3,49.5,29.79,South,180,5.8,-999.0,90,-99.99,,,0.00,Acu-Link.com,2013-03-02 22:40:00,
2013-03-02 14:55:00,53.2,50.0,29.79,South,180,3.2,-999.0,89,-99.99,,,0.00,Acu-Link.com,2013-03-02 22:55:00,
2013-03-02 15:10:00,53.2,49.7,29.78,ESE,112,3.2,-999.0,88,-99.99,,,0.00,Acu-Link.com,2013-03-02 23:10:00,
2013-03-02 15:25:00,53.1,49.3,29.79,SSW,202,3.7,-999.0,87,-99.99,,,0.00,Acu-Link.com,2013-03-02 23:25:00,
2013-03-02 15:40:00,52.9,48.8,29.79,SSE,157,0.0,-999.0,86,-99.99,,,0.00,Acu-Link.com,2013-03-02 23:40:00,
2013-03-02 15:56:00,52.9,49.1,29.79,SW,225,2.7,-999.0,87,-99.99,,,0.00,Acu-Link.com,2013-03-02 23:56:00,
2013-03-02 16:11:00,52.2,48.8,29.80,SSW,202,6.8,-999.0,88,-99.99,,,0.00,Acu-Link.com,2013-03-03 00:11:00,
2013-03-02 16:26:00,47.3,42.7,29.80,NE,45,4.2,-999.0,84,-99.99,,,0.00,Acu-Link.com,2013-03-03 00:26:00,
2013-03-02 16:41:00,46.8,42.2,29.80,NW,315,5.3,-999.0,84,-99.99,,,0.00,Acu-Link.com,2013-03-03 00:41:00,
2013-03-02 16:56:00,46.0,41.7,29.81,ESE,112,0.0,-999.0,85,-99.99,,,0.00,Acu-Link.com,2013-03-03 00:56:00,
2013-03-02 17:11:00,45.5,41.0,29.82,NNE,22,8.3,-999.0,84,-99.99,,,0.00,Acu-Link.com,2013-03-03 01:11:00,
2013-03-02 17:26:00,45.3,40.8,29.83,NNE,22,2.2,-999.0,84,-99.99,,,0.00,Acu-Link.com,2013-03-03 01:26:00,
2013-03-02 17:42:00,45.3,41.1,29.84,East,90,5.3,-999.0,85,-99.99,,,0.00,Acu-Link.com,2013-03-03 01:42:00,
2013-03-02 17:57:00,44.6,41.6,29.85,NE,45,2.7,-999.0,89,-99.99,,,0.00,Acu-Link.com,2013-03-03 01:57:00,
2013-03-02 18:12:00,44.2,41.5,29.84,WNW,292,2.7,-999.0,90,-99.99,,,0.00,Acu-Link.com,2013-03-03 02:12:00,
2013-03-02 18:27:00,44.2,41.7,29.86,ENE,67,4.2,-999.0,91,-99.99,,,0.00,Acu-Link.com,2013-03-03 02:27:00,
2013-03-02 18:42:00,43.9,42.0,29.87,ENE,67,1.1,-999.0,93,-99.99,,,0.01,Acu-Link.com,2013-03-03 02:42:00,
2013-03-02 18:57:00,43.3,42.2,29.87,SSE,157,5.8,-999.0,96,-99.99,,,0.07,Acu-Link.com,2013-03-03 02:57:00,
2013-03-02 19:12:00,43.2,42.4,29.88,South,180,2.7,-999.0,97,-99.99,,,0.09,Acu-Link.com,2013-03-03 03:12:00,
2013-03-02 19:27:00,43.0,42.5,29.89,West,270,0.0,-999.0,98,-99.99,,,0.11,Acu-Link.com,2013-03-03 03:27:00,
2013-03-02 19:42:00,42.8,41.7,29.89,SSE,157,1.1,-999.0,96,-99.99,,,0.11,Acu-Link.com,2013-03-03 03:42:00,
2013-03-02 19:58:00,42.6,41.8,29.89,ESE,112,4.7,-999.0,97,-99.99,,,0.12,Acu-Link.com,2013-03-03 03:58:00,
2013-03-02 20:13:00,42.4,41.3,29.90,East,90,3.2,-999.0,96,-99.99,,,0.12,Acu-Link.com,2013-03-03 04:13:00,
2013-03-02 20:28:00,42.1,41.0,29.90,SSE,157,2.2,-999.0,96,-99.99,,,0.13,Acu-Link.com,2013-03-03 04:28:00,
2013-03-02 20:43:00,41.7,40.4,29.91,West,270,2.7,-999.0,95,-99.99,,,0.13,Acu-Link.com,2013-03-03 04:43:00,
2013-03-02 20:58:00,41.5,40.2,29.91,ESE,112,2.7,-999.0,95,-99.99,,,0.13,Acu-Link.com,2013-03-03 04:58:00,
2013-03-02 21:13:00,41.4,40.3,29.91,SSE,157,3.7,-999.0,96,-99.99,,,0.16,Acu-Link.com,2013-03-03 05:13:00,
2013-03-02 21:28:00,41.4,40.6,29.91,East,90,3.7,-999.0,97,-99.99,,,0.16,Acu-Link.com,2013-03-03 05:28:00,
2013-03-02 21:43:00,41.2,40.1,29.91,NNE,22,3.7,-999.0,96,-99.99,,,0.16,Acu-Link.com,2013-03-03 05:43:00,
2013-03-02 21:58:00,41.4,40.3,29.91,WNW,292,2.2,-999.0,96,-99.99,,,0.16,Acu-Link.com,2013-03-03 05:58:00,
2013-03-02 22:14:00,41.4,40.1,29.93,SSE,157,6.3,-999.0,95,-99.99,,,0.16,Acu-Link.com,2013-03-03 06:14:00,
2013-03-02 22:29:00,41.2,39.9,29.91,East,90,3.2,-999.0,95,-99.99,,,0.16,Acu-Link.com,2013-03-03 06:29:00,
2013-03-02 22:44:00,41.0,39.7,29.93,East,90,3.7,-999.0,95,-99.99,,,0.16,Acu-Link.com,2013-03-03 06:44:00,
2013-03-02 22:59:00,40.6,39.3,29.93,East,90,5.8,-999.0,95,-99.99,,,0.16,Acu-Link.com,2013-03-03 06:59:00,
2013-03-02 23:14:00,40.3,39.0,29.93,ESE,112,3.2,-999.0,95,-99.99,,,0.17,Acu-Link.com,2013-03-03 07:14:00,
2013-03-02 23:29:00,39.9,38.9,29.93,West,270,3.2,-999.0,96,-99.99,,,0.19,Acu-Link.com,2013-03-03 07:29:00,
2013-03-02 23:44:00,39.2,38.4,29.93,ESE,112,3.2,-999.0,97,-99.99,,,0.19,Acu-Link.com,2013-03-03 07:44:00,
2013-03-02 23:59:00,39.0,38.5,29.93,East,90,3.2,-999.0,98,-99.99,,,0.19,Acu-Link.com,2013-03-03 07:59:00,